createdAt,value
2019-04-10T00:01:19.582Z,1.00
2019-04-10T00:03:51.425Z,1.00
2019-04-10T00:06:23.735Z,1.00
2019-04-10T00:08:54.721Z,1.00
2019-04-10T00:11:25.137Z,1.00
2019-04-10T00:13:55.467Z,1.00
2019-04-10T00:16:25.690Z,1.00
2019-04-10T00:18:56.114Z,1.00
2019-04-10T00:21:26.604Z,1.00
2019-04-10T00:23:57.696Z,1.00
2019-04-10T00:26:28.010Z,1.00
2019-04-10T00:28:58.440Z,1.00
2019-04-10T00:31:29.691Z,1.00
2019-04-10T00:34:01.088Z,1.00
2019-04-10T00:36:31.803Z,1.00
2019-04-10T00:39:02.283Z,1.00
2019-04-10T00:41:34.502Z,1.00
2019-04-10T00:44:05.717Z,1.00
2019-04-10T00:46:36.283Z,1.00
2019-04-10T00:49:07.188Z,1.00
2019-04-10T00:51:37.662Z,1.00
2019-04-10T00:54:07.823Z,1.00
2019-04-10T00:56:38.935Z,1.00
2019-04-10T00:59:10.273Z,1.00
2019-04-10T01:01:40.778Z,1.00
2019-04-10T01:04:12.293Z,1.00
2019-04-10T01:06:42.890Z,1.00
2019-04-10T01:09:13.245Z,1.00
2019-04-10T01:11:43.675Z,1.00
2019-04-10T01:14:14.040Z,1.00
2019-04-10T01:16:44.237Z,1.00
2019-04-10T01:19:15.948Z,1.00
2019-04-10T01:21:46.425Z,1.00
2019-04-10T01:24:17.535Z,1.00
2019-04-10T01:26:47.962Z,1.00
2019-04-10T01:29:18.258Z,1.00
2019-04-10T01:31:48.359Z,1.00
2019-04-10T01:34:19.044Z,1.00
2019-04-10T01:36:49.208Z,1.00
2019-04-10T01:39:26.391Z,1.00
2019-04-10T01:41:56.789Z,1.00
2019-04-10T01:44:27.008Z,1.00
2019-04-10T01:46:57.276Z,1.00
2019-04-10T01:49:27.367Z,1.00
2019-04-10T01:51:57.547Z,1.00
2019-04-10T01:54:27.634Z,1.00
2019-04-10T01:56:57.839Z,1.00
2019-04-10T01:59:30.082Z,1.00
2019-04-10T02:02:18.093Z,1.00
2019-04-10T02:04:51.009Z,1.00
2019-04-10T02:07:20.408Z,1.00
2019-04-10T02:09:50.555Z,1.00
2019-04-10T02:12:22.834Z,1.00
2019-04-10T02:14:54.303Z,1.00
2019-04-10T02:17:24.612Z,1.00
2019-04-10T02:19:54.820Z,1.00
2019-04-10T02:22:25.208Z,1.00
2019-04-10T02:24:55.600Z,1.00
2019-04-10T02:27:26.701Z,1.00
2019-04-10T02:29:57.906Z,1.00
2019-04-10T02:32:28.396Z,1.00
2019-04-10T02:34:58.778Z,1.00
2019-04-10T02:37:28.986Z,1.00
2019-04-10T02:40:02.338Z,1.00
2019-04-10T02:42:32.379Z,1.00
2019-04-10T02:45:02.805Z,1.00
2019-04-10T02:47:34.584Z,1.00
2019-04-10T02:50:08.322Z,1.00
2019-04-10T02:52:40.597Z,1.00
2019-04-10T02:55:11.855Z,1.00
2019-04-10T02:57:43.528Z,1.00
2019-04-10T03:00:14.259Z,1.00
2019-04-10T03:02:45.340Z,1.00
2019-04-10T03:05:17.615Z,1.00
2019-04-10T03:07:48.318Z,1.00
2019-04-10T03:10:26.534Z,1.00
2019-04-10T03:12:52.421Z,1.00
2019-04-10T03:15:25.176Z,4.80
2019-04-10T03:17:56.534Z,9.60
2019-04-10T03:20:26.917Z,8.60
2019-04-10T03:22:56.992Z,4.80
2019-04-10T03:25:28.886Z,6.00
2019-04-10T03:27:59.155Z,5.30
2019-04-10T03:30:30.149Z,1.00
2019-04-10T03:33:12.299Z,1.00
2019-04-10T03:35:47.898Z,1.00
2019-04-10T03:38:18.722Z,1.00
2019-04-10T03:40:49.065Z,1.00
2019-04-10T03:43:19.483Z,1.00
2019-04-10T03:45:49.726Z,1.00
2019-04-10T03:48:20.183Z,1.00
2019-04-10T03:50:50.742Z,1.00
2019-04-10T03:53:20.876Z,1.00
2019-04-10T03:55:52.046Z,1.00
2019-04-10T03:58:23.139Z,1.00
2019-04-10T04:00:54.266Z,1.00
2019-04-10T04:03:24.786Z,1.00
2019-04-10T04:05:55.932Z,1.00
2019-04-10T04:08:26.116Z,1.00
2019-04-10T04:10:57.208Z,1.00
2019-04-10T04:13:27.908Z,1.00
2019-04-10T04:15:58.452Z,1.00
2019-04-10T04:18:28.958Z,1.00
2019-04-10T04:20:59.397Z,1.00
2019-04-10T04:23:29.853Z,1.00
2019-04-10T04:26:00.985Z,1.00
2019-04-10T04:28:32.026Z,1.00
2019-04-10T04:31:03.195Z,1.00
2019-04-10T04:33:34.066Z,1.00
2019-04-10T04:36:04.850Z,1.00
2019-04-10T04:38:34.913Z,1.00
2019-04-10T04:41:05.128Z,1.00
2019-04-10T04:43:35.289Z,1.00
2019-04-10T04:46:05.378Z,1.00
2019-04-10T04:48:35.582Z,1.00
2019-04-10T04:51:06.691Z,1.00
2019-04-10T04:53:37.062Z,1.00
2019-04-10T04:56:07.438Z,1.00
2019-04-10T04:58:38.182Z,1.00
2019-04-10T05:01:08.893Z,1.00
2019-04-10T05:03:39.087Z,1.00
2019-04-10T05:06:10.119Z,1.00
2019-04-10T05:08:40.199Z,1.00
2019-04-10T05:11:10.309Z,1.00
2019-04-10T05:13:40.471Z,1.00
2019-04-10T05:16:10.551Z,1.00
2019-04-10T05:18:40.801Z,1.00
2019-04-10T05:21:11.232Z,1.00
2019-04-10T05:23:47.320Z,1.00
2019-04-10T05:26:18.590Z,1.00
2019-04-10T05:28:49.204Z,1.00
2019-04-10T05:31:21.461Z,1.00
2019-04-10T05:33:53.233Z,1.00
2019-04-10T05:36:23.640Z,1.00
2019-04-10T05:38:54.461Z,1.00
2019-04-10T05:41:25.870Z,1.00
2019-04-10T05:43:56.095Z,1.00
2019-04-10T05:46:26.617Z,1.00
2019-04-10T05:48:57.890Z,1.00
2019-04-10T05:51:28.917Z,1.00
2019-04-10T05:54:02.286Z,1.00
2019-04-10T05:56:32.793Z,1.00
2019-04-10T05:59:03.361Z,1.00
2019-04-10T06:01:37.123Z,1.00
2019-04-10T06:04:05.767Z,1.00
2019-04-10T06:06:36.683Z,1.00
2019-04-10T06:09:09.059Z,1.00
2019-04-10T06:11:39.820Z,1.00
2019-04-10T06:14:11.285Z,1.00
2019-04-10T06:16:42.388Z,1.00
2019-04-10T06:19:13.649Z,1.00
2019-04-10T06:21:44.016Z,1.00
2019-04-10T06:24:14.633Z,1.00
2019-04-10T06:26:45.888Z,1.00
2019-04-10T06:29:17.126Z,1.00
2019-04-10T06:31:47.340Z,1.00
2019-04-10T06:34:18.694Z,1.00
2019-04-10T06:36:49.476Z,1.00
2019-04-10T06:39:20.521Z,1.00
2019-04-10T06:41:50.892Z,1.00
2019-04-10T06:44:21.852Z,1.00
2019-04-10T06:46:52.933Z,1.00
2019-04-10T06:49:23.440Z,1.00
2019-04-10T06:51:53.607Z,1.00
2019-04-10T06:54:24.436Z,1.00
2019-04-10T06:56:54.917Z,1.00
2019-04-10T06:59:26.096Z,1.00
2019-04-10T07:02:05.656Z,1.00
2019-04-10T07:04:28.693Z,1.00
2019-04-10T07:07:06.502Z,1.00
2019-04-10T07:09:31.705Z,1.00
2019-04-10T07:12:04.709Z,1.00
2019-04-10T07:14:37.692Z,1.00
2019-04-10T07:17:08.952Z,1.00
2019-04-10T07:19:41.494Z,1.00
2019-04-10T07:22:14.208Z,1.00
2019-04-10T07:24:44.074Z,1.00
2019-04-10T07:27:14.608Z,1.00
2019-04-10T07:29:44.864Z,1.00
2019-04-10T07:32:15.076Z,1.00
2019-04-10T07:34:46.664Z,1.00
2019-04-10T07:37:20.226Z,1.00
2019-04-10T07:39:49.066Z,1.00
2019-04-10T07:42:26.839Z,1.00
2019-04-10T07:44:50.996Z,1.00
2019-04-10T07:47:22.088Z,1.00
2019-04-10T07:49:52.616Z,1.00
2019-04-10T07:52:24.027Z,1.00
2019-04-10T07:54:54.637Z,1.00
2019-04-10T07:57:25.222Z,1.00
2019-04-10T07:59:56.695Z,1.00
2019-04-10T08:02:27.578Z,1.00
2019-04-10T08:04:57.985Z,1.00
2019-04-10T08:07:31.758Z,1.00
2019-04-10T08:10:01.422Z,1.00
2019-04-10T08:12:41.143Z,1.00
2019-04-10T08:15:04.897Z,1.00
2019-04-10T08:17:36.894Z,1.00
2019-04-10T08:20:08.033Z,1.00
2019-04-10T08:22:39.146Z,1.00
2019-04-10T08:25:10.850Z,1.00
2019-04-10T08:27:41.794Z,1.00
2019-04-10T08:30:12.039Z,1.00
2019-04-10T08:32:53.409Z,1.00
2019-04-10T08:35:15.463Z,1.00
2019-04-10T08:37:46.222Z,1.00
2019-04-10T08:40:16.941Z,1.00
2019-04-10T08:42:47.612Z,1.00
2019-04-10T08:45:18.911Z,1.00
2019-04-10T08:47:49.459Z,1.00
2019-04-10T08:50:19.929Z,1.00
2019-04-10T08:52:50.099Z,1.00
2019-04-10T08:55:20.239Z,1.00
2019-04-10T08:57:50.480Z,1.00
2019-04-10T09:00:21.114Z,1.00
2019-04-10T09:02:51.369Z,1.00
2019-04-10T09:05:25.767Z,1.00
2019-04-10T09:07:56.936Z,1.00
2019-04-10T09:10:28.146Z,1.00
2019-04-10T09:13:00.055Z,1.00
2019-04-10T09:15:30.259Z,1.00
2019-04-10T09:18:01.961Z,1.00
2019-04-10T09:20:33.028Z,1.00
2019-04-10T09:25:37.265Z,1.00
2019-04-10T09:28:08.512Z,1.00
2019-04-10T09:30:38.995Z,1.00
2019-04-10T09:33:16.899Z,1.00
2019-04-10T09:35:41.481Z,1.00
2019-04-10T09:38:12.731Z,1.00
2019-04-10T09:40:43.218Z,1.00
2019-04-10T09:43:14.333Z,1.00
2019-04-10T09:45:45.910Z,1.00
2019-04-10T09:48:16.570Z,1.00
2019-04-10T09:50:48.045Z,1.00
2019-04-10T09:53:19.100Z,1.00
2019-04-10T09:55:49.493Z,1.00
2019-04-10T09:58:19.955Z,1.00
2019-04-10T10:00:50.292Z,1.00
2019-04-10T10:03:20.638Z,1.00
2019-04-10T10:05:51.381Z,1.00
2019-04-10T10:08:22.548Z,1.00
2019-04-10T10:10:53.387Z,1.00
2019-04-10T10:13:24.136Z,1.00
2019-04-10T10:15:54.595Z,1.00
2019-04-10T10:18:25.613Z,1.00
2019-04-10T10:20:56.455Z,1.00
2019-04-10T10:23:27.615Z,1.00
2019-04-10T10:25:58.192Z,1.00
2019-04-10T10:28:29.218Z,1.00
2019-04-10T10:30:59.934Z,1.00
2019-04-10T10:33:30.184Z,1.00
2019-04-10T10:36:00.279Z,1.00
2019-04-10T10:38:31.446Z,1.00
2019-04-10T10:41:02.771Z,1.00
2019-04-10T10:43:34.197Z,1.00
2019-04-10T10:46:05.054Z,1.00
2019-04-10T10:48:35.827Z,1.00
2019-04-10T10:51:06.714Z,1.00
2019-04-10T10:53:39.239Z,1.00
2019-04-10T10:56:09.871Z,1.00
2019-04-10T10:58:40.434Z,1.00
2019-04-10T11:01:11.527Z,1.00
2019-04-10T11:03:42.530Z,1.00
2019-04-10T11:06:12.974Z,1.00
2019-04-10T11:08:43.909Z,1.00
2019-04-10T11:11:14.474Z,1.00
2019-04-10T11:13:44.782Z,1.00
2019-04-10T11:16:14.902Z,1.00
2019-04-10T11:18:46.907Z,1.00
2019-04-10T11:21:18.260Z,1.00
2019-04-10T11:23:49.453Z,1.00
2019-04-10T11:26:22.240Z,1.00
2019-04-10T11:28:52.966Z,1.00
2019-04-10T11:31:25.211Z,1.00
2019-04-10T11:34:00.545Z,1.00
2019-04-10T11:36:32.346Z,1.00
2019-04-10T11:39:13.922Z,1.00
2019-04-10T11:41:37.228Z,1.00
2019-04-10T11:44:09.441Z,1.00
2019-04-10T11:46:41.850Z,1.00
2019-04-10T11:49:14.371Z,1.00
2019-04-10T11:51:46.567Z,1.00
2019-04-10T11:54:18.014Z,1.00
2019-04-10T11:56:50.965Z,1.00
2019-04-10T11:59:22.067Z,1.00
2019-04-10T12:01:58.115Z,1.00
2019-04-10T12:04:25.535Z,1.00
2019-04-10T12:06:59.585Z,1.00
2019-04-10T12:11:59.686Z,1.00
2019-04-10T12:14:30.022Z,1.00
2019-04-10T12:17:01.347Z,1.00
2019-04-10T12:19:32.971Z,1.00
2019-04-10T12:22:05.348Z,1.00
2019-04-10T12:24:36.356Z,1.00
2019-04-10T12:27:06.971Z,1.00
2019-04-10T12:29:38.427Z,1.00
2019-04-10T12:32:08.988Z,1.00
2019-04-10T12:34:40.109Z,1.00
2019-04-10T12:37:11.608Z,1.00
2019-04-10T12:39:41.973Z,1.00
2019-04-10T12:42:12.640Z,1.00
2019-04-10T12:44:43.071Z,1.00
2019-04-10T12:47:13.466Z,1.00
2019-04-10T12:49:43.856Z,1.00
2019-04-10T12:52:14.377Z,1.00
2019-04-10T12:54:45.006Z,1.00
2019-04-10T12:57:15.218Z,1.00
2019-04-10T12:59:45.799Z,1.00
2019-04-10T13:02:20.489Z,1.00
2019-04-10T13:04:51.027Z,1.00
2019-04-10T13:07:21.302Z,1.00
2019-04-10T13:09:54.076Z,1.00
2019-04-10T13:12:25.039Z,1.00
2019-04-10T13:14:57.005Z,1.00
2019-04-10T13:17:31.324Z,1.00
2019-04-10T13:20:01.884Z,1.00
2019-04-10T13:22:32.335Z,1.00
2019-04-10T13:25:04.179Z,1.00
2019-04-10T13:27:38.937Z,1.00
2019-04-10T13:30:12.919Z,1.00
2019-04-10T13:32:43.056Z,1.00
2019-04-10T13:35:14.088Z,1.00
2019-04-10T13:37:45.415Z,1.00
2019-04-10T13:40:16.294Z,1.00
2019-04-10T13:42:49.451Z,1.00
2019-04-10T13:45:20.022Z,1.00
2019-04-10T13:47:51.195Z,1.00
2019-04-10T13:50:22.195Z,1.00
2019-04-10T13:52:54.081Z,1.00
2019-04-10T13:55:26.298Z,1.00
2019-04-10T13:57:59.931Z,1.00
2019-04-10T14:00:41.009Z,1.00
2019-04-10T14:03:12.251Z,1.00
2019-04-10T14:05:43.297Z,1.00
2019-04-10T14:08:14.529Z,1.00
2019-04-10T14:10:45.201Z,1.00
2019-04-10T14:13:15.743Z,1.00
2019-04-10T14:15:46.411Z,1.00
2019-04-10T14:18:18.628Z,1.00
2019-04-10T14:20:49.884Z,1.00
2019-04-10T14:23:26.388Z,1.00
2019-04-10T14:26:16.874Z,1.00
2019-04-10T14:28:49.258Z,1.00
2019-04-10T14:31:27.393Z,1.00
2019-04-10T14:33:58.412Z,1.00
2019-04-10T14:36:29.796Z,1.00
2019-04-10T14:39:10.310Z,1.00
2019-04-10T14:41:33.959Z,1.00
2019-04-10T14:44:06.175Z,1.00
2019-04-10T14:46:36.433Z,1.00
2019-04-10T14:49:08.989Z,1.00
2019-04-10T14:51:40.812Z,1.00
2019-04-10T14:54:11.897Z,1.00
2019-04-10T14:56:42.355Z,1.00
2019-04-10T14:59:12.533Z,1.00
2019-04-10T15:01:42.892Z,1.00
2019-04-10T15:04:15.099Z,1.00
2019-04-10T15:06:45.858Z,1.00
2019-04-10T15:09:25.413Z,1.00
2019-04-10T15:11:53.238Z,1.00
2019-04-10T15:14:23.820Z,1.00
2019-04-10T15:17:00.031Z,1.00
2019-04-10T15:19:28.654Z,1.00
2019-04-10T15:22:01.150Z,1.00
2019-04-10T15:24:31.614Z,1.00
2019-04-10T15:27:02.735Z,1.00
2019-04-10T15:29:32.992Z,1.00
2019-04-10T15:32:04.163Z,1.00
2019-04-10T15:34:35.368Z,1.00
2019-04-10T15:37:06.835Z,1.00
2019-04-10T15:39:39.966Z,1.00
2019-04-10T15:42:09.961Z,1.00
2019-04-10T15:44:40.808Z,1.00
2019-04-10T15:47:18.385Z,1.00
2019-04-10T15:49:43.463Z,1.00
2019-04-10T15:52:14.422Z,1.00
2019-04-10T15:54:45.811Z,1.00
2019-04-10T15:57:16.444Z,1.00
2019-04-10T15:59:46.645Z,1.00
2019-04-10T16:02:17.048Z,1.00
2019-04-10T16:04:47.568Z,1.00
2019-04-10T16:07:18.134Z,1.00
2019-04-10T16:09:52.996Z,1.00
2019-04-10T16:12:22.729Z,1.00
2019-04-10T16:14:52.926Z,1.00
2019-04-10T16:18:03.449Z,1.00
2019-04-10T16:20:35.145Z,1.00
2019-04-10T16:23:18.460Z,1.00
2019-04-10T16:25:52.064Z,1.00
2019-04-10T16:28:22.912Z,1.00
2019-04-10T16:30:55.129Z,1.00
2019-04-10T16:33:33.530Z,1.00
2019-04-10T16:36:06.946Z,1.00
2019-04-10T16:38:37.055Z,1.00
2019-04-10T16:41:08.238Z,1.00
2019-04-10T16:43:38.932Z,1.00
2019-04-10T16:46:11.125Z,1.00
2019-04-10T16:48:42.191Z,1.00
2019-04-10T16:51:12.498Z,1.00
2019-04-10T16:53:44.066Z,1.00
2019-04-10T16:56:15.599Z,1.00
2019-04-10T16:58:46.001Z,1.00
2019-04-10T17:01:16.161Z,1.00
2019-04-10T17:03:47.498Z,1.00
2019-04-10T17:06:18.000Z,1.00
2019-04-10T17:08:48.255Z,1.00
2019-04-10T17:11:18.453Z,1.00
2019-04-10T17:13:49.034Z,1.00
2019-04-10T17:16:19.830Z,1.00
2019-04-10T17:18:51.674Z,1.00
2019-04-10T17:21:22.196Z,1.00
2019-04-10T17:23:54.648Z,1.00
2019-04-10T17:26:30.867Z,1.00
2019-04-10T17:29:01.410Z,1.00
2019-04-10T17:31:32.813Z,1.00
2019-04-10T17:34:03.296Z,1.00
2019-04-10T17:36:34.735Z,1.00
2019-04-10T17:39:11.106Z,1.00
2019-04-10T17:41:41.785Z,1.00
2019-04-10T17:44:12.127Z,1.00
2019-04-10T17:46:43.587Z,1.00
2019-04-10T17:49:15.362Z,1.00
2019-04-10T17:51:45.961Z,1.00
2019-04-10T17:54:16.383Z,1.00
2019-04-10T17:56:46.738Z,1.00
2019-04-10T17:59:18.290Z,1.00
2019-04-10T18:01:49.443Z,1.00
2019-04-10T18:04:20.189Z,1.00
2019-04-10T18:06:50.371Z,1.00
2019-04-10T18:09:22.718Z,1.00
2019-04-10T18:11:54.219Z,1.00
2019-04-10T18:14:24.963Z,1.00
2019-04-10T18:16:56.490Z,1.00
2019-04-10T18:19:27.463Z,1.00
2019-04-10T18:21:58.369Z,1.00
2019-04-10T18:24:30.640Z,1.00
2019-04-10T18:27:01.379Z,1.00
2019-04-10T18:29:32.990Z,1.00
2019-04-10T18:32:03.490Z,1.00
2019-04-10T18:34:35.647Z,1.00
2019-04-10T18:37:08.114Z,1.00
2019-04-10T18:39:38.828Z,1.00
2019-04-10T18:42:09.819Z,1.00
2019-04-10T18:44:41.428Z,1.00
2019-04-10T18:47:13.058Z,1.00
2019-04-10T18:49:45.738Z,1.00
2019-04-10T18:52:15.998Z,1.00
2019-04-10T18:54:46.442Z,1.00
2019-04-10T18:57:17.607Z,1.00
2019-04-10T19:00:15.239Z,1.00
2019-04-10T19:02:57.150Z,1.00
2019-04-10T19:05:31.880Z,1.00
2019-04-10T19:08:03.253Z,1.00
2019-04-10T19:10:35.419Z,1.00
2019-04-10T19:13:07.449Z,1.00
2019-04-10T19:15:39.898Z,1.00
2019-04-10T19:18:11.083Z,1.00
2019-04-10T19:20:42.864Z,1.00
2019-04-10T19:23:14.941Z,1.00
2019-04-10T19:25:46.990Z,1.00
2019-04-10T19:28:28.882Z,1.00
2019-04-10T19:31:08.060Z,1.00
2019-04-10T19:33:27.506Z,1.00
2019-04-10T19:35:59.418Z,1.00
2019-04-10T19:38:30.148Z,1.00
2019-04-10T19:41:00.711Z,1.00
2019-04-10T19:43:32.093Z,1.00
2019-04-10T19:46:04.124Z,1.00
2019-04-10T19:48:35.210Z,1.00
2019-04-10T19:51:08.217Z,1.00
2019-04-10T19:53:39.524Z,1.00
2019-04-10T19:56:10.972Z,1.00
2019-04-10T19:58:41.868Z,1.00
2019-04-10T20:01:13.785Z,1.00
2019-04-10T20:03:44.073Z,1.00
2019-04-10T20:06:14.301Z,1.00
2019-04-10T20:08:45.948Z,1.00
2019-04-10T20:11:16.989Z,1.00
2019-04-10T20:13:47.302Z,1.00
2019-04-10T20:16:17.830Z,1.00
2019-04-10T20:18:48.751Z,1.00
2019-04-10T20:21:19.660Z,1.00
2019-04-10T20:23:50.173Z,1.00
2019-04-10T20:26:21.037Z,1.00
2019-04-10T20:28:51.821Z,1.00
2019-04-10T20:31:26.676Z,1.00
2019-04-10T20:33:56.948Z,1.00
2019-04-10T20:36:27.174Z,1.00
2019-04-10T20:38:57.390Z,1.00
2019-04-10T20:41:28.775Z,1.00
2019-04-10T20:43:59.496Z,1.00
2019-04-10T20:46:31.741Z,1.00
2019-04-10T20:49:03.308Z,1.00
2019-04-10T20:51:36.305Z,1.00
2019-04-10T20:54:10.771Z,1.00
2019-04-10T20:56:41.075Z,1.00
2019-04-10T20:59:12.078Z,1.00
2019-04-10T21:01:42.326Z,1.00
2019-04-10T21:04:15.090Z,1.00
2019-04-10T21:06:46.057Z,1.00
2019-04-10T21:09:17.184Z,1.00
2019-04-10T21:12:00.956Z,1.00
2019-04-10T21:14:21.493Z,1.00
2019-04-10T21:16:52.016Z,1.00
2019-04-10T21:19:22.162Z,1.00
2019-04-10T21:21:52.324Z,8.00
2019-04-10T21:24:22.568Z,11.50
2019-04-10T21:26:52.853Z,1.80
2019-04-10T21:29:41.924Z,1.00
2019-04-10T21:32:30.509Z,1.00
2019-04-10T21:35:02.069Z,2.80
2019-04-10T21:37:32.635Z,5.20
2019-04-10T21:40:03.121Z,10.10
2019-04-10T21:42:33.599Z,13.20
2019-04-10T21:45:05.256Z,16.30
2019-04-10T21:47:35.582Z,19.40
2019-04-10T21:50:08.852Z,20.10
2019-04-10T21:52:39.309Z,17.10
2019-04-10T21:55:10.674Z,10.90
2019-04-10T21:57:42.474Z,11.00
2019-04-10T22:00:14.869Z,9.80
2019-04-10T22:02:46.869Z,8.90
2019-04-10T22:05:17.202Z,9.30
2019-04-10T22:08:00.888Z,10.70
2019-04-10T22:10:36.455Z,8.30
2019-04-10T22:13:07.883Z,5.00
2019-04-10T22:15:41.451Z,2.90
2019-04-10T22:18:12.746Z,2.10
2019-04-10T22:20:43.661Z,3.20
2019-04-10T22:23:14.591Z,1.90
2019-04-10T22:25:45.646Z,1.30
2019-04-10T22:28:16.993Z,1.20
2019-04-10T22:30:48.342Z,3.40
2019-04-10T22:33:18.660Z,4.60
2019-04-10T22:35:48.835Z,3.50
2019-04-10T22:38:19.447Z,4.70
2019-04-10T22:40:50.344Z,6.30
2019-04-10T22:43:20.815Z,8.60
2019-04-10T22:45:51.346Z,7.90
2019-04-10T22:48:21.487Z,10.30
2019-04-10T22:50:51.626Z,12.50
2019-04-10T22:53:21.765Z,12.70
2019-04-10T22:55:52.848Z,12.40
2019-04-10T22:58:23.268Z,14.60
2019-04-10T23:00:53.898Z,16.10
2019-04-10T23:03:24.507Z,18.40
2019-04-10T23:05:54.906Z,24.10
2019-04-10T23:08:27.296Z,28.90
2019-04-10T23:10:58.064Z,33.40
2019-04-10T23:13:28.362Z,36.00
2019-04-10T23:15:58.448Z,37.40
2019-04-10T23:18:29.625Z,38.20
2019-04-10T23:21:00.607Z,38.90
2019-04-10T23:23:30.841Z,39.10
2019-04-10T23:26:01.707Z,40.60
2019-04-10T23:28:31.914Z,37.30
2019-04-10T23:31:02.167Z,36.60
2019-04-10T23:33:33.157Z,35.10
2019-04-10T23:36:05.547Z,31.20
2019-04-10T23:38:36.384Z,35.10
2019-04-10T23:41:07.736Z,41.00
2019-04-10T23:43:37.870Z,43.20
2019-04-10T23:46:08.447Z,46.10
2019-04-10T23:48:39.150Z,47.10
2019-04-10T23:51:10.582Z,40.10
2019-04-10T23:53:40.843Z,34.30
2019-04-10T23:56:11.455Z,35.20
2019-04-10T23:58:42.360Z,37.70
